sensor_id;sensor_type;location;lat;lon;timestamp;pressure;altitude;pressure_sealevel;temperature;humidity
60240;BME280;46102;39.012;-7.064;2022-08-01T00:00:44;98175.13;;;29.96;26.77
60240;BME280;46102;39.012;-7.064;2022-08-01T00:02:44;98173.22;;;29.93;26.78
60240;BME280;46102;39.012;-7.064;2022-08-01T00:04:45;98173.34;;;29.89;27.28
60240;BME280;46102;39.012;-7.064;2022-08-01T00:06:45;98168.28;;;29.84;27.34
60240;BME280;46102;39.012;-7.064;2022-08-01T00:08:46;98172.94;;;29.78;27.07
60240;BME280;46102;39.012;-7.064;2022-08-01T00:10:46;98168.84;;;29.79;27.36
60240;BME280;46102;39.012;-7.064;2022-08-01T00:12:47;98172.59;;;29.76;27.20
60240;BME280;46102;39.012;-7.064;2022-08-01T00:14:48;98169.44;;;29.74;27.44
60240;BME280;46102;39.012;-7.064;2022-08-01T00:16:48;98171.47;;;29.73;27.55
60240;BME280;46102;39.012;-7.064;2022-08-01T00:18:49;98178.25;;;29.76;27.17
60240;BME280;46102;39.012;-7.064;2022-08-01T00:20:50;98176.78;;;29.71;27.20
60240;BME280;46102;39.012;-7.064;2022-08-01T00:22:51;98174.28;;;29.73;27.27
60240;BME280;46102;39.012;-7.064;2022-08-01T00:24:51;98174.03;;;29.67;27.72
60240;BME280;46102;39.012;-7.064;2022-08-01T00:26:52;98174.19;;;29.64;27.74
60240;BME280;46102;39.012;-7.064;2022-08-01T00:28:52;98170.88;;;29.65;27.53
60240;BME280;46102;39.012;-7.064;2022-08-01T00:30:53;98177.91;;;29.61;27.63
60240;BME280;46102;39.012;-7.064;2022-08-01T00:32:53;98167.25;;;29.65;27.18
60240;BME280;46102;39.012;-7.064;2022-08-01T00:34:54;98172.72;;;29.59;27.22
60240;BME280;46102;39.012;-7.064;2022-08-01T00:36:55;98174.53;;;29.53;27.63
60240;BME280;46102;39.012;-7.064;2022-08-01T00:38:55;98169.66;;;29.54;27.74
60240;BME280;46102;39.012;-7.064;2022-08-01T00:40:56;98170.13;;;29.52;27.31
60240;BME280;46102;39.012;-7.064;2022-08-01T00:42:57;98169.81;;;29.50;27.66
60240;BME280;46102;39.012;-7.064;2022-08-01T00:44:57;98171.72;;;29.40;27.41
60240;BME280;46102;39.012;-7.064;2022-08-01T00:46:58;98164.50;;;29.39;27.75
60240;BME280;46102;39.012;-7.064;2022-08-01T00:48:59;98161.00;;;29.35;27.98
60240;BME280;46102;39.012;-7.064;2022-08-01T00:50:59;98163.94;;;29.32;27.82
60240;BME280;46102;39.012;-7.064;2022-08-01T00:53:00;98157.63;;;29.27;27.85
60240;BME280;46102;39.012;-7.064;2022-08-01T00:55:01;98170.28;;;29.23;27.55
60240;BME280;46102;39.012;-7.064;2022-08-01T00:57:03;98164.75;;;29.19;27.78
60240;BME280;46102;39.012;-7.064;2022-08-01T00:59:04;98161.22;;;29.15;27.64
60240;BME280;46102;39.012;-7.064;2022-08-01T01:01:05;98170.63;;;29.12;27.46
60240;BME280;46102;39.012;-7.064;2022-08-01T01:03:06;98160.56;;;29.11;27.45
60240;BME280;46102;39.012;-7.064;2022-08-01T01:05:07;98159.19;;;29.03;27.31
60240;BME280;46102;39.012;-7.064;2022-08-01T01:07:09;98155.69;;;28.99;27.58
60240;BME280;46102;39.012;-7.064;2022-08-01T01:09:29;98167.88;;;28.96;27.52
60240;BME280;46102;39.012;-7.064;2022-08-01T01:11:37;98163.38;;;28.98;27.55
60240;BME280;46102;39.012;-7.064;2022-08-01T01:13:49;98156.25;;;28.94;27.75
60240;BME280;46102;39.012;-7.064;2022-08-01T01:15:51;98160.63;;;28.95;27.41
60240;BME280;46102;39.012;-7.064;2022-08-01T01:18:00;98148.66;;;28.91;27.45
60240;BME280;46102;39.012;-7.064;2022-08-01T01:20:02;98153.44;;;28.94;27.77
60240;BME280;46102;39.012;-7.064;2022-08-01T01:22:08;98161.78;;;28.84;27.80
60240;BME280;46102;39.012;-7.064;2022-08-01T01:24:23;98157.78;;;28.82;27.77
60240;BME280;46102;39.012;-7.064;2022-08-01T01:31:02;98161.31;;;28.73;27.75
60240;BME280;46102;39.012;-7.064;2022-08-01T01:33:06;98157.81;;;28.69;28.00
60240;BME280;46102;39.012;-7.064;2022-08-01T01:35:15;98152.50;;;28.71;28.06
60240;BME280;46102;39.012;-7.064;2022-08-01T01:37:18;98163.09;;;28.67;28.03
60240;BME280;46102;39.012;-7.064;2022-08-01T01:39:19;98155.84;;;28.66;28.18
60240;BME280;46102;39.012;-7.064;2022-08-01T01:41:21;98160.28;;;28.67;28.02
60240;BME280;46102;39.012;-7.064;2022-08-01T01:43:22;98163.09;;;28.67;28.20
60240;BME280;46102;39.012;-7.064;2022-08-01T01:45:23;98158.03;;;28.62;28.33
60240;BME280;46102;39.012;-7.064;2022-08-01T01:47:24;98157.22;;;28.61;28.44
60240;BME280;46102;39.012;-7.064;2022-08-01T01:49:26;98163.75;;;28.58;28.40
60240;BME280;46102;39.012;-7.064;2022-08-01T01:51:28;98159.47;;;28.54;28.54
60240;BME280;46102;39.012;-7.064;2022-08-01T01:53:29;98155.16;;;28.49;28.56
60240;BME280;46102;39.012;-7.064;2022-08-01T01:55:32;98156.47;;;28.44;28.49
60240;BME280;46102;39.012;-7.064;2022-08-01T01:57:33;98162.91;;;28.45;28.63
60240;BME280;46102;39.012;-7.064;2022-08-01T01:59:38;98163.34;;;28.43;28.55
60240;BME280;46102;39.012;-7.064;2022-08-01T02:01:39;98163.34;;;28.43;28.74
60240;BME280;46102;39.012;-7.064;2022-08-01T02:03:39;98157.03;;;28.39;28.79
60240;BME280;46102;39.012;-7.064;2022-08-01T02:05:41;98154.88;;;28.43;28.83
60240;BME280;46102;39.012;-7.064;2022-08-01T02:07:42;98158.34;;;28.35;29.04
60240;BME280;46102;39.012;-7.064;2022-08-01T02:09:43;98150.00;;;28.31;29.12
60240;BME280;46102;39.012;-7.064;2022-08-01T02:11:46;98147.75;;;28.26;29.19
60240;BME280;46102;39.012;-7.064;2022-08-01T02:13:55;98139.94;;;28.30;29.12
60240;BME280;46102;39.012;-7.064;2022-08-01T02:15:56;98143.34;;;28.25;29.26
60240;BME280;46102;39.012;-7.064;2022-08-01T02:17:56;98147.41;;;28.24;29.60
60240;BME280;46102;39.012;-7.064;2022-08-01T02:19:58;98137.69;;;28.25;29.36
60240;BME280;46102;39.012;-7.064;2022-08-01T02:22:01;98143.09;;;28.19;29.57
60240;BME280;46102;39.012;-7.064;2022-08-01T02:24:05;98143.97;;;28.16;29.59
60240;BME280;46102;39.012;-7.064;2022-08-01T02:26:09;98141.34;;;28.09;29.70
60240;BME280;46102;39.012;-7.064;2022-08-01T02:28:13;98144.28;;;28.06;29.87
60240;BME280;46102;39.012;-7.064;2022-08-01T02:30:16;98139.66;;;27.99;30.28
60240;BME280;46102;39.012;-7.064;2022-08-01T02:32:20;98136.28;;;28.04;30.08
60240;BME280;46102;39.012;-7.064;2022-08-01T02:34:23;98134.31;;;28.01;30.21
60240;BME280;46102;39.012;-7.064;2022-08-01T02:36:26;98134.31;;;28.01;30.43
60240;BME280;46102;39.012;-7.064;2022-08-01T02:38:29;98135.56;;;28.00;30.48
60240;BME280;46102;39.012;-7.064;2022-08-01T02:40:32;98130.94;;;27.93;30.59
60240;BME280;46102;39.012;-7.064;2022-08-01T02:42:33;98135.09;;;27.89;30.84
60240;BME280;46102;39.012;-7.064;2022-08-01T02:44:36;98130.41;;;27.82;31.09
60240;BME280;46102;39.012;-7.064;2022-08-01T02:46:38;98134.47;;;27.81;31.09
60240;BME280;46102;39.012;-7.064;2022-08-01T02:48:39;98124.41;;;27.80;30.99
60240;BME280;46102;39.012;-7.064;2022-08-01T02:50:42;98130.69;;;27.71;31.20
60240;BME280;46102;39.012;-7.064;2022-08-01T02:52:43;98128.41;;;27.66;31.13
60240;BME280;46102;39.012;-7.064;2022-08-01T02:54:47;98127.47;;;27.56;31.53
60240;BME280;46102;39.012;-7.064;2022-08-01T02:56:48;98123.41;;;27.57;31.23
60240;BME280;46102;39.012;-7.064;2022-08-01T02:58:50;98126.31;;;27.54;31.52
60240;BME280;46102;39.012;-7.064;2022-08-01T03:00:52;98121.91;;;27.53;31.34
60240;BME280;46102;39.012;-7.064;2022-08-01T03:02:53;98126.41;;;27.50;31.45
60240;BME280;46102;39.012;-7.064;2022-08-01T03:04:55;98128.16;;;27.44;31.58
60240;BME280;46102;39.012;-7.064;2022-08-01T03:06:57;98133.78;;;27.44;31.69
60240;BME280;46102;39.012;-7.064;2022-08-01T03:08:59;98138.28;;;27.41;31.97
60240;BME280;46102;39.012;-7.064;2022-08-01T03:11:00;98136.38;;;27.38;31.98
60240;BME280;46102;39.012;-7.064;2022-08-01T03:13:01;98138.38;;;27.38;32.03
60240;BME280;46102;39.012;-7.064;2022-08-01T03:15:03;98137.69;;;27.34;32.10
60240;BME280;46102;39.012;-7.064;2022-08-01T03:17:05;98133.72;;;27.31;32.18
60240;BME280;46102;39.012;-7.064;2022-08-01T03:19:07;98139.69;;;27.33;32.01
60240;BME280;46102;39.012;-7.064;2022-08-01T03:21:08;98129.41;;;27.27;32.30
60240;BME280;46102;39.012;-7.064;2022-08-01T03:23:11;98136.69;;;27.24;32.11
60240;BME280;46102;39.012;-7.064;2022-08-01T03:25:12;98142.31;;;27.24;32.64
60240;BME280;46102;39.012;-7.064;2022-08-01T03:27:14;98131.53;;;27.23;32.48
60240;BME280;46102;39.012;-7.064;2022-08-01T03:29:18;98131.53;;;27.23;32.53
60240;BME280;46102;39.012;-7.064;2022-08-01T03:31:21;98136.41;;;27.18;32.61
60240;BME280;46102;39.012;-7.064;2022-08-01T03:33:22;98138.00;;;27.19;32.67
60240;BME280;46102;39.012;-7.064;2022-08-01T03:35:23;98140.91;;;27.16;32.92
60240;BME280;46102;39.012;-7.064;2022-08-01T03:39:36;98135.72;;;27.14;33.19
60240;BME280;46102;39.012;-7.064;2022-08-01T03:41:39;98134.91;;;27.14;32.89
60240;BME280;46102;39.012;-7.064;2022-08-01T03:43:42;98145.91;;;27.08;33.31
60240;BME280;46102;39.012;-7.064;2022-08-01T03:45:46;98134.22;;;27.10;33.12
60240;BME280;46102;39.012;-7.064;2022-08-01T03:47:49;98147.50;;;27.09;33.31
60240;BME280;46102;39.012;-7.064;2022-08-01T03:49:49;98142.03;;;27.02;33.54
60240;BME280;46102;39.012;-7.064;2022-08-01T03:51:52;98139.72;;;26.97;33.74
60240;BME280;46102;39.012;-7.064;2022-08-01T03:53:53;98137.69;;;26.97;33.85
60240;BME280;46102;39.012;-7.064;2022-08-01T03:55:55;98130.66;;;26.89;34.17
60240;BME280;46102;39.012;-7.064;2022-08-01T03:57:57;98134.78;;;26.85;34.37
60240;BME280;46102;39.012;-7.064;2022-08-01T03:59:59;98130.03;;;26.82;34.11
60240;BME280;46102;39.012;-7.064;2022-08-01T04:01:59;98135.31;;;26.79;34.56
60240;BME280;46102;39.012;-7.064;2022-08-01T04:04:01;98133.00;;;26.74;34.41
60240;BME280;46102;39.012;-7.064;2022-08-01T04:06:05;98125.09;;;26.69;34.64
60240;BME280;46102;39.012;-7.064;2022-08-01T04:08:08;98136.34;;;26.69;34.49
60240;BME280;46102;39.012;-7.064;2022-08-01T04:10:08;98128.06;;;26.62;34.81
60240;BME280;46102;39.012;-7.064;2022-08-01T04:12:09;98134.63;;;26.55;34.98
60240;BME280;46102;39.012;-7.064;2022-08-01T04:14:09;98140.75;;;26.50;34.75
60240;BME280;46102;39.012;-7.064;2022-08-01T04:16:10;98142.38;;;26.48;34.95
60240;BME280;46102;39.012;-7.064;2022-08-01T04:18:10;98145.72;;;26.43;35.22
60240;BME280;46102;39.012;-7.064;2022-08-01T04:20:11;98148.53;;;26.43;35.62
60240;BME280;46102;39.012;-7.064;2022-08-01T04:22:13;98153.78;;;26.41;35.74
60240;BME280;46102;39.012;-7.064;2022-08-01T04:24:18;98156.25;;;26.38;35.37
60240;BME280;46102;39.012;-7.064;2022-08-01T04:26:19;98151.75;;;26.41;35.68
60240;BME280;46102;39.012;-7.064;2022-08-01T04:28:21;98150.13;;;26.44;36.01
60240;BME280;46102;39.012;-7.064;2022-08-01T04:30:24;98151.69;;;26.45;35.97
60240;BME280;46102;39.012;-7.064;2022-08-01T04:32:26;98154.16;;;26.43;35.94
60240;BME280;46102;39.012;-7.064;2022-08-01T04:34:29;98163.81;;;26.42;36.23
60240;BME280;46102;39.012;-7.064;2022-08-01T04:36:30;98161.94;;;26.35;36.26
60240;BME280;46102;39.012;-7.064;2022-08-01T04:38:33;98159.56;;;26.33;36.26
60240;BME280;46102;39.012;-7.064;2022-08-01T04:40:34;98168.50;;;26.28;36.58
60240;BME280;46102;39.012;-7.064;2022-08-01T04:42:36;98159.00;;;26.22;36.43
60240;BME280;46102;39.012;-7.064;2022-08-01T04:44:37;98159.00;;;26.22;36.87
60240;BME280;46102;39.012;-7.064;2022-08-01T04:46:37;98154.88;;;26.27;36.76
60240;BME280;46102;39.012;-7.064;2022-08-01T04:48:39;98145.25;;;26.28;37.20
60240;BME280;46102;39.012;-7.064;2022-08-01T04:50:40;98166.13;;;26.27;37.09
60240;BME280;46102;39.012;-7.064;2022-08-01T04:52:42;98167.78;;;26.24;37.08
60240;BME280;46102;39.012;-7.064;2022-08-01T04:54:42;98166.31;;;26.16;37.32
60240;BME280;46102;39.012;-7.064;2022-08-01T04:56:43;98171.53;;;26.17;37.52
60240;BME280;46102;39.012;-7.064;2022-08-01T04:58:43;98165.47;;;26.19;37.50
60240;BME280;46102;39.012;-7.064;2022-08-01T05:00:44;98176.28;;;26.21;37.06
60240;BME280;46102;39.012;-7.064;2022-08-01T05:02:45;98175.50;;;26.20;36.85
60240;BME280;46102;39.012;-7.064;2022-08-01T05:04:46;98179.59;;;26.15;37.15
60240;BME280;46102;39.012;-7.064;2022-08-01T05:06:47;98188.09;;;26.12;37.03
60240;BME280;46102;39.012;-7.064;2022-08-01T05:08:47;98180.09;;;26.10;36.84
60240;BME280;46102;39.012;-7.064;2022-08-01T05:10:48;98188.53;;;26.10;37.20
60240;BME280;46102;39.012;-7.064;2022-08-01T05:12:48;98185.78;;;26.07;36.98
60240;BME280;46102;39.012;-7.064;2022-08-01T05:14:49;98187.75;;;26.10;36.53
60240;BME280;46102;39.012;-7.064;2022-08-01T05:16:50;98191.25;;;26.14;36.53
60240;BME280;46102;39.012;-7.064;2022-08-01T05:18:50;98187.44;;;26.04;36.68
60240;BME280;46102;39.012;-7.064;2022-08-01T05:20:52;98184.34;;;25.99;36.64
60240;BME280;46102;39.012;-7.064;2022-08-01T05:22:52;98188.72;;;26.00;37.28
60240;BME280;46102;39.012;-7.064;2022-08-01T05:24:53;98189.22;;;25.94;37.43
60240;BME280;46102;39.012;-7.064;2022-08-01T05:26:54;98192.50;;;25.89;37.43
60240;BME280;46102;39.012;-7.064;2022-08-01T05:28:55;98186.84;;;25.93;37.63
60240;BME280;46102;39.012;-7.064;2022-08-01T05:30:55;98188.53;;;25.87;37.94
60240;BME280;46102;39.012;-7.064;2022-08-01T05:32:56;98184.28;;;25.79;37.79
60240;BME280;46102;39.012;-7.064;2022-08-01T05:34:57;98188.28;;;25.77;38.30
60240;BME280;46102;39.012;-7.064;2022-08-01T05:36:57;98189.53;;;25.76;38.19
60240;BME280;46102;39.012;-7.064;2022-08-01T05:38:58;98190.06;;;25.68;38.71
60240;BME280;46102;39.012;-7.064;2022-08-01T05:40:59;98198.88;;;25.70;38.31
60240;BME280;46102;39.012;-7.064;2022-08-01T05:42:59;98191.59;;;25.72;38.83
60240;BME280;46102;39.012;-7.064;2022-08-01T05:45:00;98194.41;;;25.72;39.32
60240;BME280;46102;39.012;-7.064;2022-08-01T05:47:00;98188.47;;;25.67;39.43
60240;BME280;46102;39.012;-7.064;2022-08-01T05:49:03;98190.97;;;25.61;39.41
60240;BME280;46102;39.012;-7.064;2022-08-01T05:51:04;98206.69;;;25.59;39.68
60240;BME280;46102;39.012;-7.064;2022-08-01T05:53:05;98210.75;;;25.54;40.03
60240;BME280;46102;39.012;-7.064;2022-08-01T05:55:06;98208.38;;;25.52;40.26
60240;BME280;46102;39.012;-7.064;2022-08-01T05:57:06;98211.19;;;25.52;40.26
60240;BME280;46102;39.012;-7.064;2022-08-01T05:59:07;98207.69;;;25.45;40.52
60240;BME280;46102;39.012;-7.064;2022-08-01T06:01:07;98210.88;;;25.47;41.25
60240;BME280;46102;39.012;-7.064;2022-08-01T06:03:08;98212.22;;;25.39;41.54
60240;BME280;46102;39.012;-7.064;2022-08-01T06:05:09;98216.66;;;25.36;41.78
60240;BME280;46102;39.012;-7.064;2022-08-01T06:07:10;98211.88;;;25.33;42.36
60240;BME280;46102;39.012;-7.064;2022-08-01T06:09:10;98207.91;;;25.30;42.00
60240;BME280;46102;39.012;-7.064;2022-08-01T06:11:11;98205.91;;;25.31;42.41
60240;BME280;46102;39.012;-7.064;2022-08-01T06:13:11;98201.50;;;25.30;42.65
60240;BME280;46102;39.012;-7.064;2022-08-01T06:15:12;98194.25;;;25.32;42.49
60240;BME280;46102;39.012;-7.064;2022-08-01T06:17:12;98196.31;;;25.28;42.74
60240;BME280;46102;39.012;-7.064;2022-08-01T06:19:13;98205.06;;;25.34;42.56
60240;BME280;46102;39.012;-7.064;2022-08-01T06:21:13;98207.44;;;25.36;42.59
60240;BME280;46102;39.012;-7.064;2022-08-01T06:23:14;98207.34;;;25.43;42.46
60240;BME280;46102;39.012;-7.064;2022-08-01T06:25:16;98209.69;;;25.44;42.54
60240;BME280;46102;39.012;-7.064;2022-08-01T06:27:16;98210.88;;;25.47;42.58
60240;BME280;46102;39.012;-7.064;2022-08-01T06:29:17;98206.06;;;25.47;42.46
60240;BME280;46102;39.012;-7.064;2022-08-01T06:31:17;98208.00;;;25.50;42.67
60240;BME280;46102;39.012;-7.064;2022-08-01T06:33:18;98215.94;;;25.55;42.39
60240;BME280;46102;39.012;-7.064;2022-08-01T06:35:18;98219.97;;;25.54;42.25
60240;BME280;46102;39.012;-7.064;2022-08-01T06:37:19;98221.91;;;25.58;42.37
60240;BME280;46102;39.012;-7.064;2022-08-01T06:39:19;98221.47;;;25.63;42.35
60240;BME280;46102;39.012;-7.064;2022-08-01T06:41:20;98218.94;;;25.68;42.23
60240;BME280;46102;39.012;-7.064;2022-08-01T06:43:21;98216.13;;;25.68;42.42
60240;BME280;46102;39.012;-7.064;2022-08-01T06:45:21;98219.91;;;25.82;42.45
60240;BME280;46102;39.012;-7.064;2022-08-01T06:47:27;98218.16;;;25.91;42.39
60240;BME280;46102;39.012;-7.064;2022-08-01T06:49:27;98221.78;;;25.92;41.96
60240;BME280;46102;39.012;-7.064;2022-08-01T06:51:28;98225.63;;;26.02;42.01
60240;BME280;46102;39.012;-7.064;2022-08-01T06:53:28;98233.41;;;26.14;42.00
60240;BME280;46102;39.012;-7.064;2022-08-01T06:55:29;98232.22;;;26.15;42.41
60240;BME280;46102;39.012;-7.064;2022-08-01T06:57:29;98228.97;;;26.16;42.23
60240;BME280;46102;39.012;-7.064;2022-08-01T06:59:30;98236.97;;;26.18;42.63
60240;BME280;46102;39.012;-7.064;2022-08-01T07:01:30;98238.78;;;26.28;42.58
60240;BME280;46102;39.012;-7.064;2022-08-01T07:03:31;98242.34;;;26.32;42.51
60240;BME280;46102;39.012;-7.064;2022-08-01T07:05:32;98241.88;;;26.34;42.41
60240;BME280;46102;39.012;-7.064;2022-08-01T07:07:32;98232.81;;;26.46;42.21
60240;BME280;46102;39.012;-7.064;2022-08-01T07:09:33;98232.28;;;26.55;42.37
60240;BME280;46102;39.012;-7.064;2022-08-01T07:11:34;98234.22;;;26.58;42.07
60240;BME280;46102;39.012;-7.064;2022-08-01T07:13:35;98233.69;;;26.63;42.01
60240;BME280;46102;39.012;-7.064;2022-08-01T07:15:35;98240.84;;;26.68;42.09
60240;BME280;46102;39.012;-7.064;2022-08-01T07:17:36;98244.75;;;26.74;42.12
60240;BME280;46102;39.012;-7.064;2022-08-01T07:19:37;98245.31;;;26.85;41.55
60240;BME280;46102;39.012;-7.064;2022-08-01T07:21:38;98248.69;;;26.96;41.30
60240;BME280;46102;39.012;-7.064;2022-08-01T07:23:38;98244.97;;;27.19;40.89
60240;BME280;46102;39.012;-7.064;2022-08-01T07:25:39;98249.44;;;27.37;40.48
60240;BME280;46102;39.012;-7.064;2022-08-01T07:27:40;98248.41;;;27.47;40.55
60240;BME280;46102;39.012;-7.064;2022-08-01T07:29:40;98249.63;;;27.62;40.07
60240;BME280;46102;39.012;-7.064;2022-08-01T07:31:41;98242.84;;;27.76;39.78
60240;BME280;46102;39.012;-7.064;2022-08-01T07:33:41;98249.13;;;27.84;39.62
60240;BME280;46102;39.012;-7.064;2022-08-01T07:35:42;98247.97;;;27.98;39.47
60240;BME280;46102;39.012;-7.064;2022-08-01T07:37:43;98259.41;;;28.07;39.40
60240;BME280;46102;39.012;-7.064;2022-08-01T07:39:43;98249.09;;;28.17;39.18
60240;BME280;46102;39.012;-7.064;2022-08-01T07:41:44;98257.00;;;28.22;38.81
60240;BME280;46102;39.012;-7.064;2022-08-01T07:43:44;98257.56;;;28.46;38.73
60240;BME280;46102;39.012;-7.064;2022-08-01T07:45:45;98266.72;;;28.67;38.33
60240;BME280;46102;39.012;-7.064;2022-08-01T07:47:45;98270.72;;;28.95;37.62
60240;BME280;46102;39.012;-7.064;2022-08-01T07:49:46;98269.03;;;28.97;37.46
60240;BME280;46102;39.012;-7.064;2022-08-01T07:51:47;98266.00;;;29.04;37.43
60240;BME280;46102;39.012;-7.064;2022-08-01T07:53:48;98274.28;;;29.24;37.23
60240;BME280;46102;39.012;-7.064;2022-08-01T07:55:49;98273.16;;;29.22;37.14
60240;BME280;46102;39.012;-7.064;2022-08-01T07:57:49;98269.78;;;29.27;37.08
60240;BME280;46102;39.012;-7.064;2022-08-01T07:59:50;98282.09;;;29.33;36.95
60240;BME280;46102;39.012;-7.064;2022-08-01T08:01:51;98280.75;;;29.51;36.61
60240;BME280;46102;39.012;-7.064;2022-08-01T08:03:52;98274.19;;;29.54;36.57
60240;BME280;46102;39.012;-7.064;2022-08-01T08:05:52;98273.66;;;29.72;36.68
60240;BME280;46102;39.012;-7.064;2022-08-01T08:07:53;98275.78;;;29.80;36.60
60240;BME280;46102;39.012;-7.064;2022-08-01T08:09:53;98273.84;;;30.03;35.85
60240;BME280;46102;39.012;-7.064;2022-08-01T08:11:54;98265.59;;;29.96;36.06
60240;BME280;46102;39.012;-7.064;2022-08-01T08:13:54;98267.41;;;30.02;36.14
60240;BME280;46102;39.012;-7.064;2022-08-01T08:15:55;98273.03;;;30.15;35.67
60240;BME280;46102;39.012;-7.064;2022-08-01T08:17:56;98266.66;;;30.24;35.29
60240;BME280;46102;39.012;-7.064;2022-08-01T08:19:56;98265.31;;;30.28;35.48
60240;BME280;46102;39.012;-7.064;2022-08-01T08:21:57;98274.41;;;30.45;35.38
60240;BME280;46102;39.012;-7.064;2022-08-01T08:23:57;98274.09;;;30.65;35.37
60240;BME280;46102;39.012;-7.064;2022-08-01T08:26:16;98270.84;;;30.89;34.27
60240;BME280;46102;39.012;-7.064;2022-08-01T08:28:17;98270.97;;;31.07;34.01
60240;BME280;46102;39.012;-7.064;2022-08-01T08:30:17;98274.06;;;31.31;33.83
60240;BME280;46102;39.012;-7.064;2022-08-01T08:32:18;98281.56;;;31.47;33.18
60240;BME280;46102;39.012;-7.064;2022-08-01T08:34:19;98280.84;;;31.65;32.85
60240;BME280;46102;39.012;-7.064;2022-08-01T08:36:19;98280.41;;;31.76;32.60
60240;BME280;46102;39.012;-7.064;2022-08-01T08:38:20;98280.63;;;31.82;32.70
60240;BME280;46102;39.012;-7.064;2022-08-01T08:40:21;98283.31;;;31.94;32.25
60240;BME280;46102;39.012;-7.064;2022-08-01T08:42:26;98282.75;;;32.09;31.85
60240;BME280;46102;39.012;-7.064;2022-08-01T08:44:27;98279.63;;;32.25;31.52
60240;BME280;46102;39.012;-7.064;2022-08-01T08:46:27;98282.47;;;32.34;30.67
60240;BME280;46102;39.012;-7.064;2022-08-01T08:48:28;98277.09;;;32.36;31.06
60240;BME280;46102;39.012;-7.064;2022-08-01T08:50:30;98279.00;;;32.49;30.75
60240;BME280;46102;39.012;-7.064;2022-08-01T08:52:30;98279.97;;;32.64;30.31
60240;BME280;46102;39.012;-7.064;2022-08-01T08:54:35;98278.22;;;32.76;30.11
60240;BME280;46102;39.012;-7.064;2022-08-01T08:56:37;98273.78;;;32.93;29.98
60240;BME280;46102;39.012;-7.064;2022-08-01T08:58:38;98279.28;;;33.15;29.32
60240;BME280;46102;39.012;-7.064;2022-08-01T09:00:40;98283.34;;;33.33;29.15
60240;BME280;46102;39.012;-7.064;2022-08-01T09:02:41;98279.00;;;33.56;28.58
60240;BME280;46102;39.012;-7.064;2022-08-01T09:04:43;98287.03;;;33.67;27.92
60240;BME280;46102;39.012;-7.064;2022-08-01T09:06:43;98286.22;;;33.66;27.75
60240;BME280;46102;39.012;-7.064;2022-08-01T09:08:44;98282.75;;;33.71;27.67
60240;BME280;46102;39.012;-7.064;2022-08-01T09:10:44;98278.34;;;33.94;27.34
60240;BME280;46102;39.012;-7.064;2022-08-01T09:13:04;98286.34;;;34.05;26.72
60240;BME280;46102;39.012;-7.064;2022-08-01T09:15:05;98296.81;;;33.99;26.58
60240;BME280;46102;39.012;-7.064;2022-08-01T09:17:07;98288.22;;;34.08;26.21
60240;BME280;46102;39.012;-7.064;2022-08-01T09:25:49;98297.34;;;34.46;26.33
60240;BME280;46102;39.012;-7.064;2022-08-01T09:27:50;98293.34;;;34.52;25.99
60240;BME280;46102;39.012;-7.064;2022-08-01T09:32:08;98293.00;;;34.74;25.67
60240;BME280;46102;39.012;-7.064;2022-08-01T09:34:09;98293.53;;;35.02;25.30
60240;BME280;46102;39.012;-7.064;2022-08-01T09:36:10;98288.53;;;35.12;24.89
60240;BME280;46102;39.012;-7.064;2022-08-01T09:38:14;98296.75;;;35.10;24.65
60240;BME280;46102;39.012;-7.064;2022-08-01T09:40:15;98292.66;;;35.11;24.28
60240;BME280;46102;39.012;-7.064;2022-08-01T09:42:23;98293.97;;;35.25;24.33
60240;BME280;46102;39.012;-7.064;2022-08-01T09:44:43;98292.28;;;35.63;24.32
60240;BME280;46102;39.012;-7.064;2022-08-01T09:46:48;98289.22;;;36.02;23.58
60240;BME280;46102;39.012;-7.064;2022-08-01T09:48:59;98295.09;;;36.13;23.53
60240;BME280;46102;39.012;-7.064;2022-08-01T09:51:00;98293.41;;;36.21;23.05
60240;BME280;46102;39.012;-7.064;2022-08-01T09:53:00;98292.66;;;36.06;23.11
60240;BME280;46102;39.012;-7.064;2022-08-01T09:55:03;98285.72;;;35.92;23.47
60240;BME280;46102;39.012;-7.064;2022-08-01T09:57:09;98289.78;;;36.06;23.35
60240;BME280;46102;39.012;-7.064;2022-08-01T09:59:09;98284.38;;;36.08;23.10
60240;BME280;46102;39.012;-7.064;2022-08-01T10:01:10;98286.97;;;36.26;23.04
60240;BME280;46102;39.012;-7.064;2022-08-01T10:03:24;98280.47;;;36.46;22.80
60240;BME280;46102;39.012;-7.064;2022-08-01T10:05:31;98275.22;;;36.60;22.57
60240;BME280;46102;39.012;-7.064;2022-08-01T10:07:33;98283.28;;;36.87;22.41
60240;BME280;46102;39.012;-7.064;2022-08-01T10:09:35;98270.03;;;37.11;21.89
60240;BME280;46102;39.012;-7.064;2022-08-01T10:11:36;98275.84;;;37.22;21.88
60240;BME280;46102;39.012;-7.064;2022-08-01T10:13:39;98286.31;;;37.30;21.71
60240;BME280;46102;39.012;-7.064;2022-08-01T10:15:40;98278.28;;;37.29;21.03
60240;BME280;46102;39.012;-7.064;2022-08-01T10:17:41;98282.09;;;37.20;21.23
60240;BME280;46102;39.012;-7.064;2022-08-01T10:19:46;98279.72;;;37.19;21.51
60240;BME280;46102;39.012;-7.064;2022-08-01T10:21:50;98272.91;;;37.42;21.09
60240;BME280;46102;39.012;-7.064;2022-08-01T10:23:54;98281.88;;;37.56;21.07
60240;BME280;46102;39.012;-7.064;2022-08-01T10:25:56;98272.13;;;37.74;21.28
60240;BME280;46102;39.012;-7.064;2022-08-01T10:27:58;98274.31;;;37.90;20.82
60240;BME280;46102;39.012;-7.064;2022-08-01T10:30:00;98268.00;;;37.80;20.89
60240;BME280;46102;39.012;-7.064;2022-08-01T10:32:04;98262.63;;;37.94;20.66
60240;BME280;46102;39.012;-7.064;2022-08-01T10:34:05;98271.84;;;38.03;20.23
60240;BME280;46102;39.012;-7.064;2022-08-01T10:36:05;98265.34;;;38.08;19.91
60240;BME280;46102;39.012;-7.064;2022-08-01T10:38:06;98268.22;;;38.08;20.11
60240;BME280;46102;39.012;-7.064;2022-08-01T10:40:07;98265.63;;;38.10;20.59
60240;BME280;46102;39.012;-7.064;2022-08-01T10:42:09;98258.66;;;38.28;20.45
60240;BME280;46102;39.012;-7.064;2022-08-01T10:44:10;98258.78;;;38.57;19.72
60240;BME280;46102;39.012;-7.064;2022-08-01T10:46:11;98262.50;;;38.91;19.67
60240;BME280;46102;39.012;-7.064;2022-08-01T10:52:24;98267.31;;;39.39;18.83
60240;BME280;46102;39.012;-7.064;2022-08-01T10:54:25;98259.22;;;39.43;18.67
60240;BME280;46102;39.012;-7.064;2022-08-01T10:56:26;98259.47;;;39.34;19.01